KEWB/EWB METAR and TAF weather

Enter ICAO airport designator
Station Type Date Time Source
KEWB METAR 2021/04/13 05:53 UTC NOAA

KEWB 130553Z AUTO 35005KT 10SM BKN033 04/03 A2993 RMK AO2 SLP136 T00440028 10067 20044 50002


Station Type Date Time Source
KEWB Decoded METAR 2021/04/13 05:53 UTC NOAA

NEW BEDFORD REGIONAL AIRPORT, MA, United States (KEWB) 41-41N 070-58W 23M
Apr 13, 2021 - 01:53 AM EDT / 2021.04.13 0553 UTC
Wind: from the N (350 degrees) at 6 MPH (5 KT):0
Visibility: 10 mile(s):0
Sky conditions: mostly cloudy
Temperature: 39.9 F (4.4 C)
Dew Point: 37.0 F (2.8 C)
Relative Humidity: 89%
Pressure (altimeter): 29.93 in. Hg (1013 hPa)
Pressure tendency: 0.01 inches (0.2 hPa) higher than three hours ago
ob: KEWB 130553Z AUTO 35005KT 10SM BKN033 04/03 A2993 RMK AO2 SLP136 T00440028 10067 20044 50002
cycle: 6

Station Type Date Time Source
KEWB TAF UTC NOAA

Error!

Example: see airport list